createdAt,value
2018-06-20T00:01:32.897Z,17.30
2018-06-20T00:08:59.404Z,17.20
2018-06-20T00:11:27.659Z,17.10
2018-06-20T00:16:24.232Z,17.10
2018-06-20T00:21:27.119Z,17.10
2018-06-20T00:26:28.565Z,17.00
2018-06-20T00:28:56.844Z,16.90
2018-06-20T00:31:25.068Z,16.90
2018-06-20T00:33:53.259Z,16.90
2018-06-20T00:36:21.823Z,16.90
2018-06-20T00:38:50.018Z,16.90
2018-06-20T00:41:21.528Z,16.90
2018-06-20T00:43:49.714Z,16.90
2018-06-20T00:46:17.949Z,16.90
2018-06-20T00:48:46.410Z,16.80
2018-06-20T00:51:14.616Z,16.80
2018-06-20T00:56:20.924Z,16.80
2018-06-20T00:58:49.258Z,16.70
2018-06-20T01:01:17.479Z,16.70
2018-06-20T01:03:45.916Z,16.70
2018-06-20T01:06:14.324Z,16.70
2018-06-20T01:08:42.593Z,16.70
2018-06-20T01:11:15.560Z,16.70
2018-06-20T01:13:44.032Z,16.60
2018-06-20T01:16:12.739Z,16.60
2018-06-20T01:18:41.629Z,16.60
2018-06-20T01:21:09.847Z,16.60
2018-06-20T01:23:38.037Z,16.50
2018-06-20T01:26:06.240Z,16.50
2018-06-20T01:28:34.453Z,16.50
2018-06-20T01:33:30.648Z,16.40
2018-06-20T01:35:58.821Z,16.40
2018-06-20T01:38:27.007Z,16.30
2018-06-20T01:40:55.256Z,16.30
2018-06-20T01:43:23.489Z,16.20
2018-06-20T01:45:51.731Z,16.10
2018-06-20T01:48:19.943Z,16.10
2018-06-20T01:50:48.124Z,16.10
2018-06-20T01:53:16.347Z,16.10
2018-06-20T01:55:44.546Z,16.10
2018-06-20T01:58:12.731Z,16.00
2018-06-20T02:00:40.896Z,16.00
2018-06-20T02:03:09.095Z,16.10
2018-06-20T02:05:37.323Z,16.20
2018-06-20T02:10:33.611Z,16.30
2018-06-20T02:13:05.790Z,16.30
2018-06-20T02:15:34.062Z,16.50
2018-06-20T02:18:02.268Z,16.40
2018-06-20T02:22:58.555Z,16.60
2018-06-20T02:25:26.810Z,16.70
2018-06-20T02:27:55.554Z,16.70
2018-06-20T02:30:23.751Z,16.80
2018-06-20T02:32:51.984Z,16.90
2018-06-20T02:37:48.188Z,16.80
2018-06-20T02:40:16.380Z,16.80
2018-06-20T02:42:49.718Z,16.90
2018-06-20T02:45:17.893Z,16.90
2018-06-20T02:47:46.080Z,16.90
2018-06-20T02:50:14.695Z,17.00
2018-06-20T02:52:42.980Z,16.90
2018-06-20T02:55:11.080Z,16.90
2018-06-20T02:57:39.269Z,16.90
2018-06-20T03:00:08.059Z,16.80
2018-06-20T03:02:36.304Z,16.80
2018-06-20T03:05:05.371Z,16.80
2018-06-20T03:07:33.556Z,16.80
2018-06-20T03:10:02.171Z,16.80
2018-06-20T03:12:30.364Z,16.70
2018-06-20T03:15:01.436Z,16.60
2018-06-20T03:19:58.334Z,16.60
2018-06-20T03:22:26.544Z,16.70
2018-06-20T03:24:54.762Z,16.80
2018-06-20T03:29:50.902Z,16.80
2018-06-20T03:32:19.670Z,16.90
2018-06-20T03:34:48.380Z,16.90
2018-06-20T03:37:16.604Z,16.90
2018-06-20T03:39:44.832Z,17.00
2018-06-20T03:42:13.039Z,17.00
2018-06-20T03:44:41.194Z,16.90
2018-06-20T03:47:13.348Z,17.00
2018-06-20T03:49:41.540Z,17.00
2018-06-20T03:52:09.772Z,17.10
2018-06-20T03:54:38.020Z,17.20
2018-06-20T03:57:06.260Z,17.30
2018-06-20T03:59:38.316Z,17.20
2018-06-20T04:02:06.518Z,17.20
2018-06-20T04:04:34.739Z,17.20
2018-06-20T04:07:02.936Z,17.30
2018-06-20T04:09:31.516Z,17.30
2018-06-20T04:11:59.724Z,17.30
2018-06-20T04:14:31.424Z,17.30
2018-06-20T04:19:28.803Z,17.50
2018-06-20T04:21:57.100Z,17.60
2018-06-20T04:24:25.382Z,17.70
2018-06-20T04:26:53.891Z,17.90
2018-06-20T04:29:22.879Z,18.00
2018-06-20T04:31:51.072Z,18.20
2018-06-20T04:34:19.230Z,18.30
2018-06-20T04:36:47.830Z,18.50
2018-06-20T04:39:16.096Z,18.60
2018-06-20T04:41:44.343Z,18.70
2018-06-20T04:44:12.607Z,18.70
2018-06-20T04:46:44.406Z,18.80
2018-06-20T04:49:12.648Z,19.10
2018-06-20T04:51:40.871Z,19.30
2018-06-20T04:54:09.048Z,19.40
2018-06-20T04:56:37.292Z,19.60
2018-06-20T04:59:05.508Z,19.80
2018-06-20T05:01:33.756Z,20.00
2018-06-20T05:04:01.954Z,20.10
2018-06-20T05:08:58.218Z,20.20
2018-06-20T05:11:26.448Z,20.40
2018-06-20T05:13:54.687Z,21.20
2018-06-20T05:16:25.889Z,22.30
2018-06-20T05:18:54.776Z,22.90
2018-06-20T05:23:51.224Z,23.10
2018-06-20T05:26:19.404Z,22.80
2018-06-20T05:28:48.083Z,22.70
2018-06-20T05:31:19.770Z,22.60
2018-06-20T05:33:48.596Z,22.60
2018-06-20T05:36:16.908Z,22.60
2018-06-20T05:38:45.171Z,22.50
2018-06-20T05:41:13.367Z,22.60
2018-06-20T05:43:41.663Z,22.70
2018-06-20T05:46:12.656Z,23.30
2018-06-20T05:48:40.951Z,25.00
2018-06-20T05:51:09.179Z,27.00
2018-06-20T05:53:38.584Z,28.80
2018-06-20T05:56:06.808Z,29.80
2018-06-20T05:58:35.060Z,30.80
2018-06-20T06:01:03.267Z,31.50
2018-06-20T06:03:31.458Z,31.80
2018-06-20T06:06:14.101Z,32.30
2018-06-20T06:08:42.681Z,32.60
2018-06-20T06:11:10.891Z,32.50
2018-06-20T06:13:39.845Z,32.90
2018-06-20T06:16:08.151Z,33.30
2018-06-20T06:18:39.919Z,33.40
2018-06-20T06:21:08.195Z,33.50
2018-06-20T06:23:36.411Z,33.60
2018-06-20T06:26:05.272Z,33.90
2018-06-20T06:28:33.536Z,33.90
2018-06-20T06:31:01.752Z,33.70
2018-06-20T06:33:30.285Z,33.70
2018-06-20T06:35:58.472Z,33.70
2018-06-20T06:38:27.373Z,33.60
2018-06-20T06:40:55.602Z,33.00
2018-06-20T06:43:23.847Z,32.50
2018-06-20T06:45:52.044Z,31.90
2018-06-20T06:48:23.267Z,31.20
2018-06-20T06:50:51.495Z,30.10
2018-06-20T06:53:20.260Z,28.60
2018-06-20T06:58:17.395Z,27.10
2018-06-20T07:00:45.601Z,25.60
2018-06-20T07:05:46.016Z,24.80
2018-06-20T07:08:14.256Z,24.40
2018-06-20T07:10:42.488Z,24.20
2018-06-20T07:15:39.840Z,24.00
2018-06-20T07:18:11.211Z,23.90
2018-06-20T07:20:39.424Z,23.90
2018-06-20T07:23:07.712Z,23.90
2018-06-20T07:25:35.913Z,23.90
2018-06-20T07:28:04.187Z,23.90
2018-06-20T07:30:32.465Z,23.90
2018-06-20T07:33:12.266Z,24.00
2018-06-20T07:35:40.594Z,23.90
2018-06-20T07:40:36.659Z,24.00
2018-06-20T07:43:04.838Z,24.10
2018-06-20T07:45:34.181Z,24.10
2018-06-20T07:48:02.384Z,24.20
2018-06-20T07:50:31.536Z,24.30
2018-06-20T07:52:59.704Z,24.30
2018-06-20T07:57:56.355Z,24.50
2018-06-20T08:00:30.108Z,24.50
2018-06-20T08:03:15.204Z,24.50
2018-06-20T08:05:48.731Z,24.50
2018-06-20T08:08:22.376Z,24.60
2018-06-20T08:10:56.844Z,24.60
2018-06-20T08:13:30.619Z,24.70
2018-06-20T08:16:04.208Z,24.80
2018-06-20T08:18:37.707Z,24.80
2018-06-20T08:21:06.086Z,24.80
2018-06-20T08:23:34.823Z,24.80
2018-06-20T08:26:03.005Z,24.80
2018-06-20T08:28:31.190Z,24.90
2018-06-20T08:30:59.552Z,25.00
2018-06-20T08:33:32.155Z,25.10
2018-06-20T08:36:00.355Z,25.20
2018-06-20T08:38:28.594Z,25.40
2018-06-20T08:43:24.824Z,25.80
2018-06-20T08:45:53.076Z,25.90
2018-06-20T08:48:21.307Z,26.10
2018-06-20T08:50:49.523Z,26.20
2018-06-20T08:53:17.904Z,26.20
2018-06-20T08:55:46.153Z,26.40
2018-06-20T08:58:14.379Z,26.60
2018-06-20T09:00:48.135Z,26.80
2018-06-20T09:03:17.330Z,27.00
2018-06-20T09:08:29.100Z,27.20
2018-06-20T09:11:02.768Z,27.20
2018-06-20T09:13:36.484Z,27.20
2018-06-20T09:16:10.796Z,27.10
2018-06-20T09:18:45.824Z,27.10
2018-06-20T09:21:14.036Z,27.00
2018-06-20T09:23:42.326Z,26.90
2018-06-20T09:26:10.664Z,27.00
2018-06-20T09:28:39.264Z,27.10
2018-06-20T09:31:07.568Z,27.00
2018-06-20T09:33:38.300Z,26.80
2018-06-20T09:36:06.703Z,26.70
2018-06-20T09:38:35.814Z,26.90
2018-06-20T09:43:32.208Z,27.40
2018-06-20T09:46:00.555Z,27.40
2018-06-20T09:48:30.571Z,27.50
2018-06-20T09:50:59.636Z,27.60
2018-06-20T09:53:28.256Z,27.40
2018-06-20T09:55:56.875Z,27.30
2018-06-20T09:58:25.775Z,27.30
2018-06-20T10:00:59.500Z,27.50
2018-06-20T10:03:33.201Z,27.80
2018-06-20T10:06:14.444Z,28.00
2018-06-20T10:08:48.153Z,28.00
2018-06-20T10:11:22.517Z,28.20
2018-06-20T10:13:57.296Z,28.10
2018-06-20T10:16:26.115Z,28.10
2018-06-20T10:18:54.412Z,28.10
2018-06-20T10:21:27.341Z,28.00
2018-06-20T10:23:55.810Z,28.00
2018-06-20T10:26:24.728Z,28.20
2018-06-20T10:28:53.117Z,28.00
2018-06-20T10:31:23.343Z,28.00
2018-06-20T10:33:52.330Z,28.10
2018-06-20T10:36:23.726Z,28.10
2018-06-20T10:38:52.368Z,28.10
2018-06-20T10:41:21.131Z,27.90
2018-06-20T10:43:49.681Z,27.70
2018-06-20T10:46:23.697Z,27.70
2018-06-20T10:48:51.947Z,28.00
2018-06-20T10:51:24.586Z,28.10
2018-06-20T10:53:52.953Z,28.20
2018-06-20T10:59:00.540Z,28.20
2018-06-20T11:01:34.295Z,28.30
2018-06-20T11:04:08.597Z,28.30
2018-06-20T11:06:43.213Z,28.40
2018-06-20T11:11:22.377Z,28.40
2018-06-20T11:13:50.869Z,28.40
2018-06-20T11:16:20.579Z,28.80
2018-06-20T11:18:51.620Z,28.90
2018-06-20T11:21:32.131Z,28.80
2018-06-20T11:24:00.951Z,28.60
2018-06-20T11:26:29.216Z,28.50
2018-06-20T11:31:26.294Z,28.50
2018-06-20T11:33:54.570Z,28.70
2018-06-20T11:36:26.938Z,28.80
2018-06-20T11:38:55.103Z,29.00
2018-06-20T11:41:23.373Z,29.10
2018-06-20T11:43:51.605Z,29.30
2018-06-20T11:46:25.285Z,29.50
2018-06-20T11:48:54.222Z,29.60
2018-06-20T11:51:22.401Z,29.20
2018-06-20T11:53:54.952Z,29.00
2018-06-20T11:56:23.495Z,29.00
2018-06-20T11:58:57.010Z,28.90
2018-06-20T12:01:30.869Z,28.90
2018-06-20T12:04:04.599Z,28.90
2018-06-20T12:06:38.116Z,28.90
2018-06-20T12:11:13.885Z,28.90
2018-06-20T12:16:26.915Z,28.90
2018-06-20T12:19:00.627Z,29.00
2018-06-20T12:21:34.262Z,29.20
2018-06-20T12:24:07.780Z,29.20
2018-06-20T12:26:42.010Z,29.00
2018-06-20T12:29:15.974Z,28.80
2018-06-20T12:31:49.658Z,28.80
2018-06-20T12:34:23.897Z,28.80
2018-06-20T12:36:58.217Z,28.70
2018-06-20T12:41:59.270Z,28.70
2018-06-20T12:47:10.539Z,29.00
2018-06-20T12:49:42.675Z,29.00
2018-06-20T12:52:10.875Z,29.20
2018-06-20T12:54:39.136Z,29.30
2018-06-20T12:57:07.353Z,29.40
2018-06-20T13:02:03.576Z,29.50
2018-06-20T13:04:31.761Z,29.50
2018-06-20T13:07:00.261Z,29.50
2018-06-20T13:11:57.100Z,29.80
2018-06-20T13:14:25.298Z,30.00
2018-06-20T13:16:53.602Z,30.10
2018-06-20T13:19:21.788Z,30.20
2018-06-20T13:21:50.899Z,30.20
2018-06-20T13:24:22.785Z,30.30
2018-06-20T13:26:51.382Z,30.30
2018-06-20T13:29:19.532Z,30.30
2018-06-20T13:31:53.236Z,30.40
2018-06-20T13:34:27.639Z,30.40
2018-06-20T13:37:01.164Z,30.50
2018-06-20T13:39:34.844Z,30.40
2018-06-20T13:42:05.031Z,30.40
2018-06-20T13:44:34.102Z,30.40
2018-06-20T13:47:07.805Z,30.40
2018-06-20T13:49:36.055Z,30.30
2018-06-20T13:52:04.412Z,30.30
2018-06-20T13:54:32.576Z,30.30
2018-06-20T13:57:00.794Z,30.40
2018-06-20T13:59:29.015Z,30.60
2018-06-20T14:01:57.244Z,30.60
2018-06-20T14:04:26.396Z,30.60
2018-06-20T14:06:55.211Z,30.50
2018-06-20T14:09:23.425Z,30.70
2018-06-20T14:11:51.626Z,30.60
2018-06-20T14:16:48.168Z,30.60
2018-06-20T14:19:17.107Z,30.70
2018-06-20T14:21:46.381Z,31.00
2018-06-20T14:26:47.093Z,31.10
2018-06-20T14:29:15.956Z,31.00
2018-06-20T14:31:49.563Z,30.80
2018-06-20T14:34:23.087Z,30.50
2018-06-20T14:36:57.371Z,30.30
2018-06-20T14:39:30.900Z,30.10
2018-06-20T14:42:04.481Z,29.70
2018-06-20T14:44:32.715Z,29.90
2018-06-20T14:47:00.987Z,30.10
2018-06-20T14:51:57.398Z,30.60
2018-06-20T14:54:25.610Z,30.70
2018-06-20T14:56:54.080Z,30.40
2018-06-20T14:59:22.395Z,30.20
2018-06-20T15:01:50.662Z,30.30
2018-06-20T15:04:18.912Z,30.50
2018-06-20T15:06:47.110Z,30.70
2018-06-20T15:09:15.296Z,30.80
2018-06-20T15:11:47.063Z,30.70
2018-06-20T15:14:15.312Z,30.70
2018-06-20T15:16:49.008Z,30.70
2018-06-20T15:19:17.198Z,30.80
2018-06-20T15:21:45.421Z,30.90
2018-06-20T15:33:59.456Z,30.90
2018-06-20T15:36:34.932Z,30.80
2018-06-20T15:39:03.509Z,29.80
2018-06-20T15:41:31.759Z,29.80
2018-06-20T15:44:00.132Z,29.80
2018-06-20T15:46:31.232Z,29.90
2018-06-20T15:48:59.484Z,30.10
2018-06-20T15:51:27.972Z,30.00
2018-06-20T15:53:57.321Z,29.90
2018-06-20T15:56:29.648Z,29.90
2018-06-20T15:58:58.013Z,29.80
2018-06-20T16:01:26.395Z,29.80
2018-06-20T16:03:54.752Z,29.80
2018-06-20T16:06:23.665Z,29.90
2018-06-20T16:08:57.907Z,30.70
2018-06-20T16:11:30.571Z,32.60
2018-06-20T16:13:59.137Z,34.30
2018-06-20T16:16:27.478Z,35.10
2018-06-20T16:19:02.124Z,36.40
2018-06-20T16:21:38.356Z,37.00
2018-06-20T16:24:11.999Z,37.20
2018-06-20T16:26:49.765Z,37.10
2018-06-20T16:29:23.408Z,37.70
2018-06-20T16:31:51.678Z,38.50
2018-06-20T16:34:20.680Z,38.60
2018-06-20T16:36:49.376Z,38.50
2018-06-20T16:39:17.574Z,38.40
2018-06-20T16:41:49.758Z,37.80
2018-06-20T16:44:17.956Z,37.40
2018-06-20T16:46:46.464Z,37.00
2018-06-20T16:49:14.652Z,37.10
2018-06-20T16:51:42.896Z,37.70
2018-06-20T16:54:11.408Z,37.90
2018-06-20T16:56:39.622Z,37.80
2018-06-20T16:59:08.048Z,38.10
2018-06-20T17:01:41.883Z,38.40
2018-06-20T17:04:10.108Z,38.70
2018-06-20T17:06:39.320Z,38.40
2018-06-20T17:09:08.629Z,38.60
2018-06-20T17:11:36.869Z,38.90
2018-06-20T17:14:10.379Z,39.30
2018-06-20T17:16:44.083Z,39.20
2018-06-20T17:19:17.656Z,39.40
2018-06-20T17:21:51.387Z,39.50
2018-06-20T17:24:25.648Z,39.40
2018-06-20T17:26:53.925Z,39.20
2018-06-20T17:29:22.128Z,38.60
2018-06-20T17:31:50.878Z,38.60
2018-06-20T17:34:19.321Z,38.50
2018-06-20T17:36:47.844Z,38.20
2018-06-20T17:39:16.080Z,38.20
2018-06-20T17:41:45.953Z,38.30
2018-06-20T17:44:14.253Z,38.20
2018-06-20T17:46:42.475Z,38.40
2018-06-20T17:49:13.512Z,38.40
2018-06-20T17:51:41.712Z,38.30
2018-06-20T17:54:09.940Z,38.10
2018-06-20T17:56:38.287Z,38.10
2018-06-20T17:59:09.593Z,37.90
2018-06-20T18:01:37.771Z,37.40
2018-06-20T18:04:07.321Z,37.00
2018-06-20T18:06:41.635Z,36.80
2018-06-20T18:09:15.172Z,36.60
2018-06-20T18:16:33.525Z,36.80
2018-06-20T18:19:02.760Z,36.80
2018-06-20T18:21:31.928Z,36.40
2018-06-20T18:24:00.282Z,36.10
2018-06-20T18:26:28.616Z,35.70
2018-06-20T18:31:28.888Z,35.10
2018-06-20T18:33:57.653Z,34.90
2018-06-20T18:36:26.937Z,34.70
2018-06-20T18:38:55.219Z,34.40
2018-06-20T18:41:23.443Z,34.10
2018-06-20T18:46:23.469Z,33.80
2018-06-20T18:48:52.928Z,33.40
2018-06-20T18:51:21.312Z,33.20
2018-06-20T18:53:49.677Z,33.00
2018-06-20T18:56:18.433Z,32.60
2018-06-20T18:58:56.404Z,32.20
2018-06-20T19:01:30.153Z,31.90
2018-06-20T19:04:04.836Z,31.70
2018-06-20T19:06:38.521Z,31.10
2018-06-20T19:09:16.672Z,30.30
2018-06-20T19:11:45.454Z,29.60
2018-06-20T19:14:18.387Z,29.00
2018-06-20T19:16:48.601Z,28.50
2018-06-20T19:19:18.769Z,28.20
2018-06-20T19:21:46.983Z,27.80
2018-06-20T19:24:15.317Z,27.50
2018-06-20T19:26:46.353Z,27.20
2018-06-20T19:29:18.543Z,26.90
2018-06-20T19:31:46.932Z,26.70
2018-06-20T19:34:15.508Z,26.50
2018-06-20T19:39:18.028Z,26.10
2018-06-20T19:41:46.408Z,26.00
2018-06-20T19:44:20.936Z,25.90
2018-06-20T19:46:49.243Z,25.80
2018-06-20T19:49:18.459Z,25.60
2018-06-20T19:51:46.768Z,25.50
2018-06-20T19:54:15.005Z,25.30
2018-06-20T19:56:43.312Z,25.10
2018-06-20T19:59:11.691Z,25.00
2018-06-20T20:01:40.009Z,25.00
2018-06-20T20:04:08.399Z,25.20
2018-06-20T20:06:36.760Z,25.20
2018-06-20T20:09:06.880Z,25.10
2018-06-20T20:11:36.381Z,24.90
2018-06-20T20:14:06.711Z,24.70
2018-06-20T20:16:36.256Z,24.50
2018-06-20T20:19:04.557Z,24.50
2018-06-20T20:21:34.364Z,24.40
2018-06-20T20:24:02.666Z,24.30
2018-06-20T20:26:32.560Z,24.20
2018-06-20T20:31:31.236Z,24.00
2018-06-20T20:34:00.525Z,23.90
2018-06-20T20:36:29.449Z,23.70
2018-06-20T20:38:57.757Z,23.60
2018-06-20T20:41:26.033Z,23.60
2018-06-20T20:43:54.284Z,23.60
2018-06-20T20:46:33.987Z,23.60
2018-06-20T20:49:02.163Z,23.60
2018-06-20T20:51:30.400Z,23.40
2018-06-20T20:53:58.995Z,23.30
2018-06-20T20:56:27.831Z,23.10
2018-06-20T20:58:56.128Z,23.10
2018-06-20T21:01:24.268Z,23.10
2018-06-20T21:03:56.631Z,23.00
2018-06-20T21:06:24.946Z,22.90
2018-06-20T21:08:54.023Z,22.80
2018-06-20T21:11:22.447Z,22.70
2018-06-20T21:13:50.700Z,22.70
2018-06-20T21:16:22.744Z,22.60
2018-06-20T21:18:58.891Z,22.60
2018-06-20T21:21:27.139Z,22.50
2018-06-20T21:23:55.340Z,22.40
2018-06-20T21:26:23.892Z,22.30
2018-06-20T21:28:52.217Z,22.30
2018-06-20T21:31:24.473Z,22.20
2018-06-20T21:33:52.755Z,22.20
2018-06-20T21:36:21.130Z,22.10
2018-06-20T21:38:49.387Z,22.10
2018-06-20T21:43:45.636Z,22.00
2018-06-20T21:46:13.924Z,21.90
2018-06-20T21:48:47.150Z,21.80
2018-06-20T21:51:16.595Z,21.80
2018-06-20T21:53:45.775Z,21.70
2018-06-20T21:56:14.309Z,21.60
2018-06-20T21:58:42.564Z,21.60
2018-06-20T22:03:40.518Z,21.40
2018-06-20T22:06:08.876Z,21.40
2018-06-20T22:08:37.052Z,21.30
2018-06-20T22:11:05.668Z,21.30
2018-06-20T22:13:33.859Z,21.30
2018-06-20T22:16:02.083Z,21.20
2018-06-20T22:18:30.319Z,21.20
2018-06-20T22:20:58.739Z,21.10
2018-06-20T22:23:26.979Z,21.10
2018-06-20T22:28:23.208Z,21.00
2018-06-20T22:30:51.743Z,20.90
2018-06-20T22:33:20.596Z,20.90
2018-06-20T22:35:49.684Z,20.90
2018-06-20T22:38:17.973Z,20.80
2018-06-20T22:40:46.135Z,20.70
2018-06-20T22:43:14.696Z,20.80
2018-06-20T22:45:43.241Z,20.80
2018-06-20T22:48:14.743Z,20.70
2018-06-20T22:50:43.031Z,20.70
2018-06-20T22:53:12.217Z,20.60
2018-06-20T22:55:40.800Z,20.60
2018-06-20T22:58:10.625Z,20.50
2018-06-20T23:00:38.888Z,20.40
2018-06-20T23:03:07.088Z,20.40
2018-06-20T23:05:35.342Z,20.30
2018-06-20T23:10:33.132Z,20.20
2018-06-20T23:13:01.348Z,20.20
2018-06-20T23:15:29.764Z,20.20
2018-06-20T23:17:58.371Z,20.10
2018-06-20T23:20:30.146Z,20.10
2018-06-20T23:22:58.402Z,20.10
2018-06-20T23:25:26.667Z,20.10
2018-06-20T23:27:54.843Z,20.10
2018-06-20T23:30:23.119Z,20.10
2018-06-20T23:32:51.321Z,20.10
2018-06-20T23:35:19.618Z,20.20
2018-06-20T23:37:47.832Z,20.30
2018-06-20T23:40:16.013Z,20.30
2018-06-20T23:42:50.999Z,20.20
2018-06-20T23:45:19.233Z,20.20
2018-06-20T23:47:47.406Z,20.10
2018-06-20T23:50:18.856Z,20.00
2018-06-20T23:52:47.024Z,19.90
2018-06-20T23:57:43.272Z,19.80
